Terminal Aerodrome Forecast
Issued by NWS Topeka, KS

Home | Current Version | Previous Version | Graphics & Text | Print | Product List | Glossary On
Versions: 1 2 3 4 5 6 7 8 9 10 11 12 13 14 15 16 17 18 19 20 21
000
FTUS43 KTOP 231700
TAFTOP
TAF
KTOP 231720Z 2318/2418 14014G22KT P6SM VCSH OVC100
     FM232000 16020G30KT P6SM SCT150
     FM240900 20011KT 3SM TSRA OVC014CB
     FM241400 32012G20KT 6SM SHRA OVC025=

USA.gov is the U.S. government's official web portal to all federal, state and local government web resources and services.